createdAt,value
2023-10-30T00:00:21.374Z,18.05
2023-10-30T00:02:47.990Z,18.04
2023-10-30T00:05:14.308Z,18.02
2023-10-30T00:07:40.582Z,18.01
2023-10-30T00:10:06.881Z,17.99
2023-10-30T00:12:33.202Z,17.97
2023-10-30T00:15:02.694Z,17.95
2023-10-30T00:17:29.367Z,17.93
2023-10-30T00:19:55.691Z,17.93
2023-10-30T00:22:21.974Z,17.91
2023-10-30T00:24:48.295Z,17.89
2023-10-30T00:27:14.740Z,17.87
2023-10-30T00:29:41.216Z,17.86
2023-10-30T00:32:07.531Z,17.86
2023-10-30T00:34:34.194Z,17.84
2023-10-30T00:37:00.604Z,17.83
2023-10-30T00:39:26.956Z,17.81
2023-10-30T00:41:53.314Z,17.79
2023-10-30T00:44:19.579Z,17.78
2023-10-30T00:46:45.900Z,17.77
2023-10-30T00:49:12.211Z,17.75
2023-10-30T00:51:38.580Z,17.73
2023-10-30T00:54:04.914Z,17.72
2023-10-30T00:56:31.254Z,17.70
2023-10-30T00:58:57.549Z,17.68
2023-10-30T01:01:23.872Z,17.66
2023-10-30T01:03:50.265Z,17.66
2023-10-30T01:06:16.701Z,17.65
2023-10-30T01:08:43.086Z,17.63
2023-10-30T01:11:15.276Z,17.62
2023-10-30T01:13:41.576Z,17.61
2023-10-30T01:16:07.898Z,17.61
2023-10-30T01:18:34.259Z,17.61
2023-10-30T01:21:00.599Z,17.60
2023-10-30T01:23:26.892Z,17.60
2023-10-30T01:25:53.206Z,17.58
2023-10-30T01:28:19.514Z,17.56
2023-10-30T01:30:45.856Z,17.55
2023-10-30T01:33:12.344Z,17.54
2023-10-30T01:35:38.783Z,17.52
2023-10-30T01:38:05.092Z,17.51
2023-10-30T01:40:31.433Z,17.52
2023-10-30T01:42:57.899Z,17.51
2023-10-30T01:45:24.211Z,17.51
2023-10-30T01:47:50.580Z,17.49
2023-10-30T01:50:16.942Z,17.49
2023-10-30T01:52:43.212Z,17.48
2023-10-30T01:55:09.483Z,17.46
2023-10-30T01:57:35.833Z,17.46
2023-10-30T02:00:02.185Z,17.44
2023-10-30T02:02:28.645Z,17.42
2023-10-30T02:04:54.995Z,17.41
2023-10-30T02:07:21.603Z,17.41
2023-10-30T02:09:48.171Z,17.41
2023-10-30T02:12:14.651Z,17.39
2023-10-30T02:14:41.004Z,17.38
2023-10-30T02:17:07.301Z,17.36
2023-10-30T02:19:33.629Z,17.36
2023-10-30T02:21:59.902Z,17.34
2023-10-30T02:24:26.230Z,17.31
2023-10-30T02:26:52.549Z,17.31
2023-10-30T02:29:18.919Z,17.29
2023-10-30T02:34:34.274Z,17.28
2023-10-30T02:37:00.600Z,17.26
2023-10-30T02:39:27.078Z,17.25
2023-10-30T02:41:53.433Z,17.24
2023-10-30T02:44:20.023Z,17.23
2023-10-30T02:46:46.372Z,17.21
2023-10-30T02:49:12.654Z,17.20
2023-10-30T02:51:38.993Z,17.20
2023-10-30T02:54:05.334Z,17.20
2023-10-30T02:56:31.629Z,17.19
2023-10-30T02:58:57.987Z,17.18
2023-10-30T03:01:24.323Z,17.17
2023-10-30T03:03:50.734Z,17.17
2023-10-30T03:06:17.490Z,17.16
2023-10-30T03:08:43.792Z,17.15
2023-10-30T03:11:10.079Z,17.14
2023-10-30T03:13:36.401Z,17.14
2023-10-30T03:16:02.773Z,17.14
2023-10-30T03:18:29.215Z,17.12
2023-10-30T03:20:55.583Z,17.12
2023-10-30T03:23:21.963Z,17.10
2023-10-30T03:25:48.259Z,17.10
2023-10-30T03:28:14.568Z,17.11
2023-10-30T03:30:40.939Z,17.09
2023-10-30T03:33:08.384Z,17.09
2023-10-30T03:35:34.668Z,17.09
2023-10-30T03:38:00.949Z,17.09
2023-10-30T03:40:27.295Z,17.07
2023-10-30T03:42:53.605Z,17.07
2023-10-30T03:45:19.892Z,17.06
2023-10-30T03:47:46.200Z,17.06
2023-10-30T03:50:12.619Z,17.04
2023-10-30T03:52:40.572Z,17.04
2023-10-30T03:55:08.096Z,17.04
2023-10-30T03:57:34.375Z,17.05
2023-10-30T04:00:00.688Z,17.05
2023-10-30T04:02:27.010Z,17.06
2023-10-30T04:04:53.476Z,17.07
2023-10-30T04:07:19.782Z,17.07
2023-10-30T04:09:46.143Z,17.06
2023-10-30T04:12:12.490Z,17.06
2023-10-30T04:17:23.058Z,17.07
2023-10-30T04:19:49.573Z,17.07
2023-10-30T04:22:18.784Z,17.08
2023-10-30T04:24:45.834Z,17.07
2023-10-30T04:27:13.098Z,17.07
2023-10-30T04:29:40.896Z,17.05
2023-10-30T04:32:07.181Z,17.05
2023-10-30T04:34:33.473Z,17.04
2023-10-30T04:36:59.746Z,17.04
2023-10-30T04:39:26.078Z,17.04
2023-10-30T04:41:52.431Z,17.05
2023-10-30T04:44:18.706Z,17.04
2023-10-30T04:46:45.042Z,17.04
2023-10-30T04:49:12.616Z,17.04
2023-10-30T04:51:38.912Z,17.03
2023-10-30T04:54:05.230Z,17.03
2023-10-30T04:56:31.546Z,17.03
2023-10-30T04:58:57.851Z,17.03
2023-10-30T05:01:24.177Z,17.02
2023-10-30T05:03:50.540Z,17.01
2023-10-30T05:06:16.891Z,17.01
2023-10-30T05:08:43.180Z,17.00
2023-10-30T05:11:09.469Z,16.99
2023-10-30T05:13:38.827Z,16.99
2023-10-30T05:16:05.136Z,16.98
2023-10-30T05:18:31.580Z,16.98
2023-10-30T05:20:57.916Z,16.97
2023-10-30T05:23:24.228Z,16.97
2023-10-30T05:25:50.545Z,16.97
2023-10-30T05:28:16.889Z,16.96
2023-10-30T05:30:43.370Z,16.96
2023-10-30T05:33:09.804Z,16.96
2023-10-30T05:35:38.925Z,16.95
2023-10-30T05:38:05.514Z,16.96
2023-10-30T05:40:31.856Z,16.94
2023-10-30T05:42:58.162Z,16.93
2023-10-30T05:45:24.503Z,16.93
2023-10-30T05:47:50.824Z,16.93
2023-10-30T05:50:17.470Z,16.94
2023-10-30T05:52:43.746Z,16.92
2023-10-30T05:55:10.074Z,16.93
2023-10-30T05:57:36.492Z,16.92
2023-10-30T06:00:04.193Z,16.92
2023-10-30T06:02:30.497Z,16.92
2023-10-30T06:04:56.795Z,16.92
2023-10-30T06:07:24.318Z,16.91
2023-10-30T06:09:50.815Z,16.91
2023-10-30T06:12:17.408Z,16.89
2023-10-30T06:14:43.756Z,16.90
2023-10-30T06:17:10.129Z,16.91
2023-10-30T06:19:36.434Z,16.90
2023-10-30T06:22:02.750Z,16.88
2023-10-30T06:24:29.061Z,16.88
2023-10-30T06:26:55.426Z,16.87
2023-10-30T06:29:21.912Z,16.88
2023-10-30T06:31:48.206Z,16.86
2023-10-30T06:34:14.516Z,16.86
2023-10-30T06:36:43.040Z,16.87
2023-10-30T06:39:10.202Z,16.86
2023-10-30T06:41:36.487Z,16.86
2023-10-30T06:44:02.798Z,16.85
2023-10-30T06:46:29.174Z,16.85
2023-10-30T06:48:55.615Z,16.84
2023-10-30T06:51:21.959Z,16.85
2023-10-30T06:53:48.303Z,16.86
2023-10-30T06:56:14.577Z,16.88
2023-10-30T06:58:40.875Z,16.99
2023-10-30T07:01:07.249Z,17.15
2023-10-30T07:03:35.972Z,17.30
2023-10-30T07:06:02.934Z,17.43
2023-10-30T07:08:29.311Z,17.54
2023-10-30T07:10:55.658Z,17.63
2023-10-30T07:13:22.021Z,17.72
2023-10-30T07:15:48.380Z,17.78
2023-10-30T07:18:14.757Z,17.83
2023-10-30T07:20:41.050Z,17.88
2023-10-30T07:23:07.363Z,17.93
2023-10-30T07:25:33.685Z,17.99
2023-10-30T07:28:00.081Z,18.05
2023-10-30T07:30:26.530Z,18.10
2023-10-30T07:32:52.907Z,18.15
2023-10-30T07:35:19.227Z,18.18
2023-10-30T07:37:45.512Z,18.23
2023-10-30T07:40:11.782Z,18.26
2023-10-30T07:42:38.126Z,18.29
2023-10-30T07:45:04.494Z,18.32
2023-10-30T07:47:43.335Z,18.35
2023-10-30T07:50:10.624Z,18.37
2023-10-30T07:52:38.118Z,18.39
2023-10-30T07:55:06.129Z,18.41
2023-10-30T07:57:32.495Z,18.43
2023-10-30T07:59:58.893Z,18.46
2023-10-30T08:02:25.204Z,18.48
2023-10-30T08:04:51.513Z,18.51
2023-10-30T08:07:17.884Z,18.52
2023-10-30T08:09:44.265Z,18.54
2023-10-30T08:12:10.686Z,18.57
2023-10-30T08:14:37.777Z,18.59
2023-10-30T08:17:04.227Z,18.62
2023-10-30T08:19:30.527Z,18.66
2023-10-30T08:21:56.825Z,18.69
2023-10-30T08:24:23.253Z,18.70
2023-10-30T08:26:49.586Z,18.71
2023-10-30T08:29:15.887Z,18.73
2023-10-30T08:31:43.292Z,18.74
2023-10-30T08:34:10.213Z,18.75
2023-10-30T08:36:36.570Z,18.77
2023-10-30T08:39:02.900Z,18.78
2023-10-30T08:41:30.349Z,18.80
2023-10-30T08:43:56.687Z,18.81
2023-10-30T08:46:23.150Z,18.82
2023-10-30T08:48:49.979Z,18.84
2023-10-30T08:51:21.383Z,18.85
2023-10-30T08:53:47.784Z,18.87
2023-10-30T08:56:14.134Z,18.88
2023-10-30T08:58:40.535Z,18.90
2023-10-30T09:01:08.000Z,18.91
2023-10-30T09:03:34.453Z,18.92
2023-10-30T09:06:01.167Z,18.94
2023-10-30T09:08:27.513Z,18.94
2023-10-30T09:10:53.847Z,18.95
2023-10-30T09:13:20.193Z,18.96
2023-10-30T09:15:46.588Z,18.98
2023-10-30T09:18:13.020Z,19.01
2023-10-30T09:20:39.337Z,19.03
2023-10-30T09:23:05.955Z,19.06
2023-10-30T09:25:32.282Z,19.07
2023-10-30T09:27:58.724Z,19.09
2023-10-30T09:30:25.072Z,19.11
2023-10-30T09:32:51.564Z,19.14
2023-10-30T09:35:17.940Z,19.14
2023-10-30T09:37:44.238Z,19.16
2023-10-30T09:40:10.563Z,19.17
2023-10-30T09:42:36.973Z,19.17
2023-10-30T09:45:03.330Z,19.19
2023-10-30T09:47:29.886Z,19.20
2023-10-30T09:49:56.192Z,19.22
2023-10-30T09:52:22.501Z,19.25
2023-10-30T09:54:49.120Z,19.26
2023-10-30T09:57:15.716Z,19.29
2023-10-30T09:59:42.055Z,19.28
2023-10-30T10:02:08.460Z,19.32
2023-10-30T10:04:34.845Z,19.37
2023-10-30T10:07:01.188Z,19.40
2023-10-30T10:09:27.520Z,19.34
2023-10-30T10:11:53.831Z,19.24
2023-10-30T10:14:20.225Z,19.23
2023-10-30T10:16:46.677Z,19.29
2023-10-30T10:19:13.017Z,19.34
2023-10-30T10:21:39.360Z,19.37
2023-10-30T10:24:05.706Z,19.40
2023-10-30T10:26:32.126Z,19.43
2023-10-30T10:28:58.452Z,19.44
2023-10-30T10:31:25.650Z,19.51
2023-10-30T10:33:52.017Z,19.56
2023-10-30T10:36:18.363Z,19.62
2023-10-30T10:38:44.674Z,19.57
2023-10-30T10:41:10.998Z,19.64
2023-10-30T10:43:37.707Z,19.63
2023-10-30T10:46:04.097Z,19.68
2023-10-30T10:48:30.640Z,19.68
2023-10-30T10:50:56.949Z,19.68
2023-10-30T10:53:23.276Z,19.69
2023-10-30T10:55:49.805Z,19.68
2023-10-30T10:58:16.179Z,19.68
2023-10-30T11:00:42.571Z,19.68
2023-10-30T11:03:13.252Z,19.71
2023-10-30T11:05:39.571Z,19.85
2023-10-30T11:08:06.098Z,19.94
2023-10-30T11:10:32.591Z,20.00
2023-10-30T11:12:59.063Z,19.94
2023-10-30T11:15:25.373Z,19.87
2023-10-30T11:20:18.061Z,19.85
2023-10-30T11:22:44.601Z,19.94
2023-10-30T11:25:10.892Z,19.90
2023-10-30T11:27:37.388Z,19.96
2023-10-30T11:30:03.794Z,20.00
2023-10-30T11:32:30.161Z,20.04
2023-10-30T11:34:56.482Z,20.06
2023-10-30T11:37:22.873Z,20.09
2023-10-30T11:39:49.295Z,20.11
2023-10-30T11:42:15.688Z,20.14
2023-10-30T11:44:41.993Z,20.18
2023-10-30T11:47:08.269Z,20.22
2023-10-30T11:49:35.763Z,20.22
2023-10-30T11:52:02.151Z,20.24
2023-10-30T11:54:28.598Z,20.22
2023-10-30T11:56:54.893Z,20.24
2023-10-30T11:59:23.296Z,20.22
2023-10-30T12:01:49.647Z,20.20
2023-10-30T12:04:16.092Z,20.20
2023-10-30T12:06:42.547Z,20.19
2023-10-30T12:09:08.907Z,20.19
2023-10-30T12:11:35.221Z,20.17
2023-10-30T12:14:01.562Z,20.15
2023-10-30T12:16:27.965Z,20.16
2023-10-30T12:18:54.396Z,20.17
2023-10-30T12:21:20.724Z,20.17
2023-10-30T12:23:47.208Z,20.19
2023-10-30T12:26:13.541Z,20.20
2023-10-30T12:28:39.875Z,20.19
2023-10-30T12:31:06.314Z,20.22
2023-10-30T12:33:32.770Z,20.21
2023-10-30T12:35:59.091Z,20.20
2023-10-30T12:38:25.416Z,20.20
2023-10-30T12:40:51.750Z,20.19
2023-10-30T12:43:18.039Z,20.17
2023-10-30T12:45:44.418Z,20.17
2023-10-30T12:48:10.816Z,20.15
2023-10-30T12:50:37.189Z,20.15
2023-10-30T12:53:03.552Z,20.17
2023-10-30T12:55:29.951Z,20.14
2023-10-30T12:57:56.332Z,20.13
2023-10-30T13:00:22.725Z,20.15
2023-10-30T13:02:49.130Z,20.15
2023-10-30T13:05:15.700Z,20.14
2023-10-30T13:07:42.319Z,20.14
2023-10-30T13:10:08.699Z,20.12
2023-10-30T13:12:35.063Z,20.13
2023-10-30T13:15:01.400Z,20.14
2023-10-30T13:17:28.074Z,20.15
2023-10-30T13:19:54.538Z,20.17
2023-10-30T13:22:20.836Z,20.20
2023-10-30T13:24:47.261Z,20.21
2023-10-30T13:27:13.594Z,20.23
2023-10-30T13:29:39.947Z,20.22
2023-10-30T13:32:07.312Z,20.22
2023-10-30T13:34:33.684Z,20.20
2023-10-30T13:37:00.099Z,20.19
2023-10-30T13:39:26.612Z,20.19
2023-10-30T13:41:53.012Z,20.17
2023-10-30T13:44:19.432Z,20.17
2023-10-30T13:46:45.769Z,20.17
2023-10-30T13:49:12.123Z,20.15
2023-10-30T13:51:38.441Z,20.14
2023-10-30T13:54:04.832Z,20.14
2023-10-30T13:56:31.126Z,20.14
2023-10-30T13:58:57.424Z,20.13
2023-10-30T14:01:23.819Z,20.12
2023-10-30T14:03:51.017Z,20.12
2023-10-30T14:06:17.640Z,20.10
2023-10-30T14:08:43.919Z,20.10
2023-10-30T14:11:10.184Z,20.09
2023-10-30T14:13:36.495Z,20.08
2023-10-30T14:16:02.939Z,20.08
2023-10-30T14:18:29.375Z,20.06
2023-10-30T14:20:55.680Z,20.05
2023-10-30T14:23:21.984Z,20.04
2023-10-30T14:25:48.297Z,20.03
2023-10-30T14:28:14.581Z,20.02
2023-10-30T14:30:40.997Z,20.01
2023-10-30T14:33:07.343Z,19.99
2023-10-30T14:35:33.676Z,19.98
2023-10-30T14:37:59.988Z,19.97
2023-10-30T14:40:26.383Z,19.95
2023-10-30T14:42:52.750Z,19.95
2023-10-30T14:45:20.764Z,19.93
2023-10-30T14:47:47.293Z,19.92
2023-10-30T14:50:13.618Z,19.90
2023-10-30T14:52:40.015Z,19.90
2023-10-30T14:55:06.363Z,19.91
2023-10-30T14:57:32.815Z,19.89
2023-10-30T14:59:59.122Z,19.88
2023-10-30T15:02:25.494Z,19.86
2023-10-30T15:04:51.900Z,19.86
2023-10-30T15:07:18.273Z,19.85
2023-10-30T15:09:44.615Z,19.82
2023-10-30T15:12:10.941Z,19.80
2023-10-30T15:14:37.287Z,19.79
2023-10-30T15:17:05.620Z,19.79
2023-10-30T15:19:32.098Z,19.78
2023-10-30T15:21:58.457Z,19.77
2023-10-30T15:24:24.859Z,19.76
2023-10-30T15:26:51.167Z,19.74
2023-10-30T15:29:17.494Z,19.73
2023-10-30T15:31:43.795Z,19.73
2023-10-30T15:34:10.200Z,19.72
2023-10-30T15:36:36.577Z,19.70
2023-10-30T15:39:02.879Z,19.69
2023-10-30T15:41:29.173Z,19.69
2023-10-30T15:43:55.524Z,19.67
2023-10-30T15:46:21.981Z,19.66
2023-10-30T15:48:48.350Z,19.64
2023-10-30T15:51:14.645Z,19.64
2023-10-30T16:01:02.936Z,19.57
2023-10-30T16:08:47.123Z,19.56
2023-10-30T16:11:30.335Z,19.58
2023-10-30T16:13:57.258Z,19.61
2023-10-30T16:16:23.637Z,19.61
2023-10-30T16:21:19.366Z,19.65
2023-10-30T16:23:45.742Z,19.66
2023-10-30T16:26:12.000Z,19.67
2023-10-30T16:28:38.323Z,19.69
2023-10-30T16:31:05.865Z,19.71
2023-10-30T16:33:32.195Z,19.71
2023-10-30T16:35:58.596Z,19.71
2023-10-30T16:38:24.992Z,19.72
2023-10-30T16:40:51.397Z,19.73
2023-10-30T16:43:17.947Z,19.74
2023-10-30T16:45:44.285Z,19.75
2023-10-30T16:48:10.607Z,19.74
2023-10-30T16:50:36.942Z,19.74
2023-10-30T16:53:03.253Z,19.74
2023-10-30T16:55:30.545Z,19.75
2023-10-30T16:57:57.048Z,19.76
2023-10-30T17:00:23.391Z,19.77
2023-10-30T17:02:49.764Z,19.78
2023-10-30T17:05:16.055Z,19.78
2023-10-30T17:07:42.398Z,19.79
2023-10-30T17:10:08.710Z,19.80
2023-10-30T17:12:35.058Z,19.80
2023-10-30T17:15:01.422Z,19.80
2023-10-30T17:17:27.912Z,19.82
2023-10-30T17:19:54.264Z,19.82
2023-10-30T17:22:20.673Z,19.84
2023-10-30T17:24:47.056Z,19.85
2023-10-30T17:27:13.394Z,19.86
2023-10-30T17:29:39.650Z,19.86
2023-10-30T17:32:05.971Z,19.86
2023-10-30T17:34:32.325Z,19.87
2023-10-30T17:36:58.648Z,19.89
2023-10-30T17:39:24.932Z,19.90
2023-10-30T17:41:51.199Z,19.90
2023-10-30T17:44:17.563Z,19.91
2023-10-30T17:46:43.944Z,19.92
2023-10-30T17:49:10.293Z,19.93
2023-10-30T17:51:36.603Z,19.95
2023-10-30T17:54:02.933Z,19.94
2023-10-30T17:56:29.231Z,19.95
2023-10-30T17:58:55.599Z,19.97
2023-10-30T18:01:21.982Z,19.98
2023-10-30T18:03:48.432Z,19.98
2023-10-30T18:06:14.784Z,20.00
2023-10-30T18:08:41.172Z,20.02
2023-10-30T18:11:07.452Z,20.01
2023-10-30T18:13:33.857Z,20.02
2023-10-30T18:16:00.198Z,20.03
2023-10-30T18:18:26.538Z,20.03
2023-10-30T18:20:53.023Z,20.04
2023-10-30T18:23:19.613Z,20.04
2023-10-30T18:25:47.073Z,20.04
2023-10-30T18:28:13.395Z,20.05
2023-10-30T18:30:39.717Z,20.04
2023-10-30T18:33:06.131Z,20.04
2023-10-30T18:35:34.021Z,20.03
2023-10-30T18:38:00.346Z,20.04
2023-10-30T18:40:26.734Z,20.03
2023-10-30T18:42:53.040Z,20.03
2023-10-30T18:45:19.335Z,20.02
2023-10-30T18:47:45.864Z,20.02
2023-10-30T18:50:12.416Z,20.01
2023-10-30T18:52:38.776Z,19.99
2023-10-30T18:55:05.204Z,19.99
2023-10-30T18:57:31.527Z,19.99
2023-10-30T18:59:58.011Z,19.98
2023-10-30T19:02:24.309Z,19.97
2023-10-30T19:04:50.637Z,19.95
2023-10-30T19:07:17.131Z,19.95
2023-10-30T19:09:43.435Z,19.94
2023-10-30T19:12:09.751Z,19.93
2023-10-30T19:14:36.433Z,19.93
2023-10-30T19:17:02.792Z,19.92
2023-10-30T19:19:29.123Z,19.92
2023-10-30T19:21:55.472Z,19.93
2023-10-30T19:24:21.773Z,19.94
2023-10-30T19:26:48.410Z,19.95
2023-10-30T19:29:14.802Z,19.97
2023-10-30T19:31:41.255Z,19.99
2023-10-30T19:34:07.634Z,20.00
2023-10-30T19:36:33.973Z,20.01
2023-10-30T19:39:00.293Z,20.02
2023-10-30T19:41:26.629Z,20.03
2023-10-30T19:43:52.928Z,20.04
2023-10-30T19:46:25.834Z,20.06
2023-10-30T19:48:55.963Z,20.05
2023-10-30T19:51:22.343Z,20.05
2023-10-30T19:53:48.718Z,20.06
2023-10-30T19:56:15.163Z,20.06
2023-10-30T19:58:41.575Z,20.06
2023-10-30T20:01:08.352Z,20.07
2023-10-30T20:03:34.716Z,20.07
2023-10-30T20:06:01.085Z,20.08
2023-10-30T20:08:27.435Z,20.08
2023-10-30T20:10:54.999Z,20.07
2023-10-30T20:13:21.324Z,20.08
2023-10-30T20:15:47.685Z,20.07
2023-10-30T20:18:14.001Z,20.07
2023-10-30T20:20:40.345Z,20.06
2023-10-30T20:23:06.658Z,20.06
2023-10-30T20:25:33.057Z,20.04
2023-10-30T20:27:59.759Z,20.05
2023-10-30T20:30:26.117Z,20.03
2023-10-30T20:32:52.495Z,20.03
2023-10-30T20:35:21.674Z,20.03
2023-10-30T20:37:48.051Z,20.03
2023-10-30T20:40:14.383Z,20.02
2023-10-30T20:42:40.726Z,20.01
2023-10-30T20:45:07.041Z,20.01
2023-10-30T20:47:33.397Z,20.00
2023-10-30T20:49:59.751Z,20.00
2023-10-30T20:52:26.158Z,20.01
2023-10-30T20:54:52.472Z,20.01
2023-10-30T20:57:18.780Z,20.00
2023-10-30T20:59:45.095Z,20.00
2023-10-30T21:02:11.650Z,19.99
2023-10-30T21:04:38.048Z,20.00
2023-10-30T21:07:04.695Z,20.00
2023-10-30T21:09:30.973Z,20.01
2023-10-30T21:11:57.260Z,20.01
2023-10-30T21:14:23.856Z,20.01
2023-10-30T21:16:50.241Z,20.01
2023-10-30T21:19:16.603Z,20.02
2023-10-30T21:21:42.921Z,20.02
2023-10-30T21:24:09.345Z,20.03
2023-10-30T21:26:35.682Z,20.02
2023-10-30T21:29:02.045Z,20.02
2023-10-30T21:31:28.408Z,20.03
2023-10-30T21:33:54.773Z,20.03
2023-10-30T21:36:21.088Z,20.04
2023-10-30T21:38:47.378Z,20.03
2023-10-30T21:41:14.122Z,20.03
2023-10-30T21:43:40.569Z,20.03
2023-10-30T21:46:06.942Z,20.04
2023-10-30T21:48:33.256Z,20.02
2023-10-30T21:50:59.565Z,20.01
2023-10-30T21:53:25.893Z,20.01
2023-10-30T21:55:52.277Z,20.02
2023-10-30T21:58:18.641Z,20.01
2023-10-30T22:00:44.953Z,20.01
2023-10-30T22:03:11.352Z,20.00
2023-10-30T22:05:37.710Z,20.00
2023-10-30T22:08:04.142Z,19.99
2023-10-30T22:10:30.653Z,19.98
2023-10-30T22:12:59.232Z,19.97
2023-10-30T22:15:25.592Z,19.98
2023-10-30T22:17:51.883Z,19.97
2023-10-30T22:20:18.236Z,19.95
2023-10-30T22:22:44.562Z,19.90
2023-10-30T22:25:11.013Z,19.82
2023-10-30T22:27:37.456Z,19.75
2023-10-30T22:30:10.330Z,19.69
2023-10-30T22:32:36.846Z,19.63
2023-10-30T22:35:03.242Z,19.58
2023-10-30T22:37:30.703Z,19.54
2023-10-30T22:39:57.093Z,19.49
2023-10-30T22:42:23.357Z,19.45
2023-10-30T22:44:49.685Z,19.42
2023-10-30T22:47:16.043Z,19.38
2023-10-30T22:49:42.400Z,19.36
2023-10-30T22:52:08.796Z,19.34
2023-10-30T22:54:35.139Z,19.31
2023-10-30T22:57:01.532Z,19.29
2023-10-30T22:59:27.881Z,19.25
2023-10-30T23:01:54.285Z,19.24
2023-10-30T23:07:10.483Z,19.18
2023-10-30T23:09:36.859Z,19.16
2023-10-30T23:12:03.192Z,19.13
2023-10-30T23:14:29.539Z,19.11
2023-10-30T23:16:55.929Z,19.10
2023-10-30T23:19:22.271Z,19.09
2023-10-30T23:21:48.604Z,19.07
2023-10-30T23:24:15.049Z,19.04
2023-10-30T23:26:41.399Z,19.02
2023-10-30T23:29:07.718Z,19.01
2023-10-30T23:31:34.198Z,18.99
2023-10-30T23:34:00.556Z,18.99
2023-10-30T23:36:26.926Z,18.96
2023-10-30T23:38:53.194Z,18.96
2023-10-30T23:41:19.475Z,18.94
2023-10-30T23:43:45.933Z,18.93
2023-10-30T23:46:13.389Z,18.91
2023-10-30T23:48:40.377Z,18.90
2023-10-30T23:51:06.705Z,18.88
2023-10-30T23:53:33.002Z,18.85
2023-10-30T23:55:59.465Z,18.84
2023-10-30T23:58:25.735Z,18.81
